sensor_id;sensor_type;location;lat;lon;timestamp;pressure;altitude;pressure_sealevel;temperature;humidity
44359;BME280;30077;52.474;13.326;2023-02-14T00:02:36;103118.28;;;5.74;96.67
44359;BME280;30077;52.474;13.326;2023-02-14T00:07:37;103110.34;;;5.74;96.30
44359;BME280;30077;52.474;13.326;2023-02-14T00:12:37;103115.69;;;5.77;96.08
44359;BME280;30077;52.474;13.326;2023-02-14T00:17:37;103111.25;;;5.78;96.21
44359;BME280;30077;52.474;13.326;2023-02-14T00:22:37;103116.38;;;5.66;96.23
44359;BME280;30077;52.474;13.326;2023-02-14T00:27:38;103110.19;;;5.64;96.60
44359;BME280;30077;52.474;13.326;2023-02-14T00:32:38;103117.34;;;5.72;96.21
44359;BME280;30077;52.474;13.326;2023-02-14T00:37:40;103108.53;;;5.73;95.95
44359;BME280;30077;52.474;13.326;2023-02-14T00:42:40;103105.09;;;5.77;95.01
44359;BME280;30077;52.474;13.326;2023-02-14T00:47:40;103108.63;;;5.79;95.28
44359;BME280;30077;52.474;13.326;2023-02-14T00:52:40;103116.66;;;5.86;95.33
44359;BME280;30077;52.474;13.326;2023-02-14T00:57:41;103107.75;;;5.79;94.49
44359;BME280;30077;52.474;13.326;2023-02-14T01:02:41;103097.97;;;5.75;94.81
44359;BME280;30077;52.474;13.326;2023-02-14T01:07:41;103099.59;;;5.65;94.99
44359;BME280;30077;52.474;13.326;2023-02-14T01:12:41;103089.09;;;5.71;95.32
44359;BME280;30077;52.474;13.326;2023-02-14T01:17:41;103089.03;;;5.68;94.51
44359;BME280;30077;52.474;13.326;2023-02-14T01:22:41;103089.09;;;5.71;93.96
44359;BME280;30077;52.474;13.326;2023-02-14T01:27:42;103079.44;;;5.75;95.01
44359;BME280;30077;52.474;13.326;2023-02-14T01:32:42;103073.16;;;5.68;95.11
44359;BME280;30077;52.474;13.326;2023-02-14T01:37:42;103076.72;;;5.70;94.84
44359;BME280;30077;52.474;13.326;2023-02-14T01:42:42;103072.28;;;5.68;94.77
44359;BME280;30077;52.474;13.326;2023-02-14T01:47:43;103067.06;;;5.75;94.85
44359;BME280;30077;52.474;13.326;2023-02-14T01:52:51;103068.97;;;5.87;94.05
44359;BME280;30077;52.474;13.326;2023-02-14T01:57:55;103064.63;;;5.91;93.43
44359;BME280;30077;52.474;13.326;2023-02-14T02:02:57;103069.91;;;5.91;93.68
44359;BME280;30077;52.474;13.326;2023-02-14T02:07:58;103069.91;;;5.91;93.35
44359;BME280;30077;52.474;13.326;2023-02-14T02:13:02;103068.94;;;5.84;93.86
44359;BME280;30077;52.474;13.326;2023-02-14T02:18:09;103066.25;;;5.79;93.27
44359;BME280;30077;52.474;13.326;2023-02-14T02:38:52;103066.59;;;6.04;94.04
44359;BME280;30077;52.474;13.326;2023-02-14T02:43:58;103072.81;;;6.09;93.45
44359;BME280;30077;52.474;13.326;2023-02-14T02:49:13;103071.94;;;6.07;93.77
44359;BME280;30077;52.474;13.326;2023-02-14T02:54:36;103073.72;;;6.08;93.23
44359;BME280;30077;52.474;13.326;2023-02-14T02:59:40;103063.09;;;6.08;93.08
44359;BME280;30077;52.474;13.326;2023-02-14T03:04:42;103063.81;;;5.95;92.41
44359;BME280;30077;52.474;13.326;2023-02-14T03:09:54;103061.81;;;5.78;94.59
44359;BME280;30077;52.474;13.326;2023-02-14T03:15:00;103062.72;;;5.80;94.66
44359;BME280;30077;52.474;13.326;2023-02-14T03:20:07;103061.88;;;5.83;94.38
44359;BME280;30077;52.474;13.326;2023-02-14T03:40:26;103053.09;;;5.87;94.75
44359;BME280;30077;52.474;13.326;2023-02-14T03:45:31;103048.66;;;5.85;94.73
44359;BME280;30077;52.474;13.326;2023-02-14T03:50:33;103061.88;;;5.83;95.12
44359;BME280;30077;52.474;13.326;2023-02-14T03:55:43;103059.28;;;5.88;95.93
44359;BME280;30077;52.474;13.326;2023-02-14T04:00:45;103055.84;;;5.93;94.75
44359;BME280;30077;52.474;13.326;2023-02-14T04:05:46;103052.31;;;5.93;94.97
44359;BME280;30077;52.474;13.326;2023-02-14T04:10:51;103060.28;;;5.93;94.54
44359;BME280;30077;52.474;13.326;2023-02-14T04:15:51;103048.69;;;5.88;95.34
44359;BME280;30077;52.474;13.326;2023-02-14T04:20:52;103050.44;;;5.86;95.56
44359;BME280;30077;52.474;13.326;2023-02-14T04:25:52;103039.78;;;5.83;95.24
44359;BME280;30077;52.474;13.326;2023-02-14T04:30:52;103050.47;;;5.89;94.49
44359;BME280;30077;52.474;13.326;2023-02-14T04:35:52;103053.88;;;5.78;95.71
44359;BME280;30077;52.474;13.326;2023-02-14T04:40:53;103039.84;;;5.86;96.25
44359;BME280;30077;52.474;13.326;2023-02-14T04:45:53;103046.94;;;5.90;95.02
44359;BME280;30077;52.474;13.326;2023-02-14T04:50:53;103038.06;;;5.85;95.24
44359;BME280;30077;52.474;13.326;2023-02-14T04:55:54;103035.44;;;5.88;96.01
44359;BME280;30077;52.474;13.326;2023-02-14T05:00:54;103035.53;;;5.92;96.25
44359;BME280;30077;52.474;13.326;2023-02-14T05:05:54;103031.19;;;5.99;96.19
44359;BME280;30077;52.474;13.326;2023-02-14T05:10:54;103025.88;;;5.96;95.34
44359;BME280;30077;52.474;13.326;2023-02-14T05:15:54;103029.19;;;5.83;95.26
44359;BME280;30077;52.474;13.326;2023-02-14T05:20:55;103029.25;;;5.87;95.59
44359;BME280;30077;52.474;13.326;2023-02-14T05:25:55;103029.28;;;5.92;95.16
44359;BME280;30077;52.474;13.326;2023-02-14T05:30:55;103016.88;;;5.88;95.24
44359;BME280;30077;52.474;13.326;2023-02-14T05:35:59;103011.69;;;5.94;95.52
44359;BME280;30077;52.474;13.326;2023-02-14T05:41:01;103008.19;;;5.95;96.17
44359;BME280;30077;52.474;13.326;2023-02-14T05:46:01;103014.41;;;5.98;95.87
44359;BME280;30077;52.474;13.326;2023-02-14T05:51:06;103013.56;;;6.01;95.71
44359;BME280;30077;52.474;13.326;2023-02-14T05:56:06;103013.47;;;5.95;95.50
44359;BME280;30077;52.474;13.326;2023-02-14T06:01:06;103018.69;;;5.89;95.66
44359;BME280;30077;52.474;13.326;2023-02-14T06:06:06;103017.03;;;5.97;96.10
44359;BME280;30077;52.474;13.326;2023-02-14T06:11:06;103011.78;;;6.00;96.70
44359;BME280;30077;52.474;13.326;2023-02-14T06:16:07;103022.38;;;6.00;96.15
44359;BME280;30077;52.474;13.326;2023-02-14T06:21:07;103018.78;;;5.95;96.00
44359;BME280;30077;52.474;13.326;2023-02-14T06:26:07;103017.13;;;6.03;95.96
44359;BME280;30077;52.474;13.326;2023-02-14T06:31:07;103022.47;;;6.09;96.23
44359;BME280;30077;52.474;13.326;2023-02-14T06:36:08;103022.50;;;6.12;95.95
44359;BME280;30077;52.474;13.326;2023-02-14T06:41:08;103015.47;;;6.14;94.04
44359;BME280;30077;52.474;13.326;2023-02-14T06:46:09;103019.84;;;6.11;94.02
44359;BME280;30077;52.474;13.326;2023-02-14T06:51:09;103019.91;;;6.14;94.10
44359;BME280;30077;52.474;13.326;2023-02-14T06:56:09;103029.69;;;6.22;92.12
44359;BME280;30077;52.474;13.326;2023-02-14T07:01:09;103017.28;;;6.18;93.17
44359;BME280;30077;52.474;13.326;2023-02-14T07:06:09;103017.28;;;6.18;93.51
44359;BME280;30077;52.474;13.326;2023-02-14T07:11:10;103019.91;;;6.17;92.84
44359;BME280;30077;52.474;13.326;2023-02-14T07:16:10;103014.72;;;6.27;92.56
44359;BME280;30077;52.474;13.326;2023-02-14T07:21:11;103013.88;;;6.29;91.73
44359;BME280;30077;52.474;13.326;2023-02-14T07:26:12;103024.47;;;6.29;92.85
44359;BME280;30077;52.474;13.326;2023-02-14T07:31:17;103020.06;;;6.29;91.70
44359;BME280;30077;52.474;13.326;2023-02-14T07:36:18;103028.81;;;6.23;92.72
44359;BME280;30077;52.474;13.326;2023-02-14T07:41:18;103017.47;;;6.37;93.50
44359;BME280;30077;52.474;13.326;2023-02-14T07:46:19;103014.16;;;6.59;92.86
44359;BME280;30077;52.474;13.326;2023-02-14T07:51:19;103014.34;;;6.81;90.57
44359;BME280;30077;52.474;13.326;2023-02-14T07:56:19;103009.13;;;6.93;88.75
44359;BME280;30077;52.474;13.326;2023-02-14T08:01:19;103008.22;;;6.92;88.84
44359;BME280;30077;52.474;13.326;2023-02-14T08:06:20;103014.44;;;6.93;88.46
44359;BME280;30077;52.474;13.326;2023-02-14T08:11:20;103013.59;;;7.00;88.69
44359;BME280;30077;52.474;13.326;2023-02-14T08:16:39;103026.09;;;7.13;87.69
44359;BME280;30077;52.474;13.326;2023-02-14T08:21:39;103020.84;;;7.24;86.32
44359;BME280;30077;52.474;13.326;2023-02-14T08:26:39;103025.31;;;7.28;86.63
44359;BME280;30077;52.474;13.326;2023-02-14T08:31:39;103036.81;;;7.27;85.98
44359;BME280;30077;52.474;13.326;2023-02-14T08:36:40;103039.47;;;7.29;86.00
44359;BME280;30077;52.474;13.326;2023-02-14T08:41:40;103041.31;;;7.39;85.32
44359;BME280;30077;52.474;13.326;2023-02-14T08:46:40;103047.50;;;7.44;85.69
44359;BME280;30077;52.474;13.326;2023-02-14T08:51:40;103056.41;;;7.44;84.92
44359;BME280;30077;52.474;13.326;2023-02-14T08:56:40;103041.34;;;7.46;84.42
44359;BME280;30077;52.474;13.326;2023-02-14T09:01:41;103045.81;;;7.54;84.58
44359;BME280;30077;52.474;13.326;2023-02-14T09:06:41;103053.91;;;7.74;84.26
44359;BME280;30077;52.474;13.326;2023-02-14T09:11:41;103052.22;;;7.97;81.25
44359;BME280;30077;52.474;13.326;2023-02-14T09:16:41;103051.28;;;7.87;81.31
44359;BME280;30077;52.474;13.326;2023-02-14T09:21:42;103050.44;;;7.88;82.64
44359;BME280;30077;52.474;13.326;2023-02-14T09:26:42;103046.88;;;7.94;82.51
44359;BME280;30077;52.474;13.326;2023-02-14T09:31:42;103052.25;;;8.09;82.55
44359;BME280;30077;52.474;13.326;2023-02-14T09:36:42;103045.19;;;8.14;82.17
44359;BME280;30077;52.474;13.326;2023-02-14T09:42:04;103047.00;;;8.22;81.69
44359;BME280;30077;52.474;13.326;2023-02-14T09:47:10;103045.19;;;8.14;80.35
44359;BME280;30077;52.474;13.326;2023-02-14T09:52:15;103048.66;;;7.98;80.94
44359;BME280;30077;52.474;13.326;2023-02-14T09:57:31;103062.03;;;8.13;80.71
44359;BME280;30077;52.474;13.326;2023-02-14T10:07:39;103059.41;;;8.35;80.15
44359;BME280;30077;52.474;13.326;2023-02-14T10:17:57;103050.63;;;8.45;79.91
44359;BME280;30077;52.474;13.326;2023-02-14T10:23:16;103050.63;;;8.60;78.54
44359;BME280;30077;52.474;13.326;2023-02-14T10:28:21;103041.78;;;8.74;78.09
44359;BME280;30077;52.474;13.326;2023-02-14T10:33:24;103041.78;;;8.74;77.93
44359;BME280;30077;52.474;13.326;2023-02-14T10:43:33;103034.69;;;8.85;76.91
44359;BME280;30077;52.474;13.326;2023-02-14T10:48:46;103038.25;;;8.84;76.73
44359;BME280;30077;52.474;13.326;2023-02-14T10:59:15;103030.25;;;8.96;75.76
44359;BME280;30077;52.474;13.326;2023-02-14T11:04:19;103036.44;;;9.10;75.80
44359;BME280;30077;52.474;13.326;2023-02-14T11:09:21;103027.59;;;8.96;75.04
44359;BME280;30077;52.474;13.326;2023-02-14T11:14:23;103024.03;;;8.70;75.23
44359;BME280;30077;52.474;13.326;2023-02-14T11:19:25;103020.50;;;8.77;76.99
44359;BME280;30077;52.474;13.326;2023-02-14T11:29:27;103016.06;;;8.86;76.10
44359;BME280;30077;52.474;13.326;2023-02-14T11:39:30;103010.72;;;8.74;76.87
44359;BME280;30077;52.474;13.326;2023-02-14T11:44:31;103002.75;;;8.88;76.83
44359;BME280;30077;52.474;13.326;2023-02-14T11:49:32;103008.06;;;8.85;76.89
44359;BME280;30077;52.474;13.326;2023-02-14T11:54:34;103008.06;;;8.88;76.57
44359;BME280;30077;52.474;13.326;2023-02-14T11:59:43;102996.56;;;8.83;77.05
44359;BME280;30077;52.474;13.326;2023-02-14T12:04:44;102991.22;;;8.71;77.25
44359;BME280;30077;52.474;13.326;2023-02-14T12:09:46;102982.34;;;8.78;77.75
44359;BME280;30077;52.474;13.326;2023-02-14T12:14:48;102981.47;;;8.94;77.13
44359;BME280;30077;52.474;13.326;2023-02-14T12:30:31;102960.13;;;9.00;76.97
44359;BME280;30077;52.474;13.326;2023-02-14T12:40:21;102942.38;;;9.05;76.66
44359;BME280;30077;52.474;13.326;2023-02-14T12:45:44;102937.03;;;9.14;76.07
44359;BME280;30077;52.474;13.326;2023-02-14T12:56:10;102924.66;;;8.98;76.41
44359;BME280;30077;52.474;13.326;2023-02-14T13:06:34;102914.91;;;8.85;77.39
44359;BME280;30077;52.474;13.326;2023-02-14T13:16:56;102909.63;;;8.76;79.36
44359;BME280;30077;52.474;13.326;2023-02-14T13:21:58;102914.03;;;8.83;78.37
44359;BME280;30077;52.474;13.326;2023-02-14T13:27:00;102905.13;;;8.96;77.80
44359;BME280;30077;52.474;13.326;2023-02-14T13:32:01;102899.78;;;8.96;77.29
44359;BME280;30077;52.474;13.326;2023-02-14T13:37:02;102902.50;;;8.84;77.35
44359;BME280;30077;52.474;13.326;2023-02-14T13:42:05;102890.06;;;8.87;77.08
44359;BME280;30077;52.474;13.326;2023-02-14T13:47:05;102890.09;;;8.80;77.90
44359;BME280;30077;52.474;13.326;2023-02-14T13:52:07;102890.09;;;8.63;78.69
44359;BME280;30077;52.474;13.326;2023-02-14T13:57:22;102896.28;;;8.94;76.77
44359;BME280;30077;52.474;13.326;2023-02-14T14:07:27;102892.78;;;8.61;78.30
44359;BME280;30077;52.474;13.326;2023-02-14T14:17:34;102896.34;;;8.39;80.07
44359;BME280;30077;52.474;13.326;2023-02-14T14:22:40;102878.59;;;8.29;80.60
44359;BME280;30077;52.474;13.326;2023-02-14T14:27:45;102871.50;;;8.25;80.35
44359;BME280;30077;52.474;13.326;2023-02-14T14:32:45;102870.63;;;8.21;81.79
44359;BME280;30077;52.474;13.326;2023-02-14T14:37:53;102866.16;;;8.26;81.91
44359;BME280;30077;52.474;13.326;2023-02-14T14:42:54;102868.84;;;8.14;81.47
44359;BME280;30077;52.474;13.326;2023-02-14T14:47:59;102859.06;;;8.11;82.73
44359;BME280;30077;52.474;13.326;2023-02-14T14:53:04;102867.94;;;8.04;82.97
44359;BME280;30077;52.474;13.326;2023-02-14T14:58:06;102860.84;;;7.94;83.16
44359;BME280;30077;52.474;13.326;2023-02-14T15:03:26;102852.84;;;7.76;84.25
44359;BME280;30077;52.474;13.326;2023-02-14T15:08:28;102850.19;;;7.71;85.63
44359;BME280;30077;52.474;13.326;2023-02-14T15:13:40;102846.63;;;7.67;85.26
44359;BME280;30077;52.474;13.326;2023-02-14T15:19:04;102843.97;;;7.60;85.43
44359;BME280;30077;52.474;13.326;2023-02-14T15:24:08;102837.75;;;7.56;86.21
44359;BME280;30077;52.474;13.326;2023-02-14T15:29:17;102830.63;;;7.47;86.57
44359;BME280;30077;52.474;13.326;2023-02-14T15:34:19;102824.44;;;7.38;86.47
44359;BME280;30077;52.474;13.326;2023-02-14T15:39:21;102820.00;;;7.40;86.45
44359;BME280;30077;52.474;13.326;2023-02-14T15:44:25;102819.97;;;7.37;86.10
44359;BME280;30077;52.474;13.326;2023-02-14T15:49:29;102815.53;;;7.23;86.77
44359;BME280;30077;52.474;13.326;2023-02-14T15:54:32;102811.97;;;7.17;87.26
44359;BME280;30077;52.474;13.326;2023-02-14T15:59:34;102804.91;;;7.16;87.39
44359;BME280;30077;52.474;13.326;2023-02-14T16:04:35;102796.03;;;7.09;87.84
44359;BME280;30077;52.474;13.326;2023-02-14T16:09:35;102806.63;;;7.06;87.96
44359;BME280;30077;52.474;13.326;2023-02-14T16:14:36;102797.72;;;6.90;nan
44359;BME280;30077;52.474;13.326;2023-02-14T16:19:40;102800.34;;;6.83;89.60
44359;BME280;30077;52.474;13.326;2023-02-14T16:24:41;102789.72;;;6.80;90.33
44359;BME280;30077;52.474;13.326;2023-02-14T16:29:41;102792.38;;;6.81;90.14
44359;BME280;30077;52.474;13.326;2023-02-14T16:34:41;102786.19;;;6.81;90.28
44359;BME280;30077;52.474;13.326;2023-02-14T16:39:41;102796.72;;;6.71;90.24
44359;BME280;30077;52.474;13.326;2023-02-14T16:44:42;102797.59;;;6.67;91.39
44359;BME280;30077;52.474;13.326;2023-02-14T16:49:42;102794.97;;;6.69;91.27
44359;BME280;30077;52.474;13.326;2023-02-14T16:54:42;102802.09;;;6.81;90.49
44359;BME280;30077;52.474;13.326;2023-02-14T16:59:42;102803.78;;;6.66;91.23
44359;BME280;30077;52.474;13.326;2023-02-14T17:04:43;102804.63;;;6.61;91.57
44359;BME280;30077;52.474;13.326;2023-02-14T17:09:47;102805.50;;;6.54;92.09
44359;BME280;30077;52.474;13.326;2023-02-14T17:14:50;102803.72;;;6.54;92.41
44359;BME280;30077;52.474;13.326;2023-02-14T17:19:51;102801.06;;;6.54;91.80
44359;BME280;30077;52.474;13.326;2023-02-14T17:24:52;102801.94;;;6.50;91.21
44359;BME280;30077;52.474;13.326;2023-02-14T17:29:52;102798.41;;;6.57;91.31
44359;BME280;30077;52.474;13.326;2023-02-14T17:34:53;102791.34;;;6.50;92.33
44359;BME280;30077;52.474;13.326;2023-02-14T17:39:55;102793.06;;;6.48;91.81
44359;BME280;30077;52.474;13.326;2023-02-14T17:44:57;102790.41;;;6.43;92.13
44359;BME280;30077;52.474;13.326;2023-02-14T17:49:57;102795.69;;;6.40;92.20
44359;BME280;30077;52.474;13.326;2023-02-14T17:54:57;102785.97;;;6.44;92.45
44359;BME280;30077;52.474;13.326;2023-02-14T17:59:57;102781.53;;;6.40;91.75
44359;BME280;30077;52.474;13.326;2023-02-14T18:04:57;102779.75;;;6.37;92.05
44359;BME280;30077;52.474;13.326;2023-02-14T18:09:57;102772.63;;;6.32;92.60
44359;BME280;30077;52.474;13.326;2023-02-14T18:14:58;102768.22;;;6.31;92.84
44359;BME280;30077;52.474;13.326;2023-02-14T18:19:58;102769.06;;;6.22;93.70
44359;BME280;30077;52.474;13.326;2023-02-14T18:24:58;102768.19;;;6.27;93.46
44359;BME280;30077;52.474;13.326;2023-02-14T18:29:58;102758.44;;;6.20;94.29
44359;BME280;30077;52.474;13.326;2023-02-14T18:34:59;102747.84;;;6.22;93.61
44359;BME280;30077;52.474;13.326;2023-02-14T18:39:59;102745.19;;;6.23;93.40
44359;BME280;30077;52.474;13.326;2023-02-14T18:44:59;102737.22;;;6.19;94.60
44359;BME280;30077;52.474;13.326;2023-02-14T18:49:59;102740.75;;;6.15;94.45
44359;BME280;30077;52.474;13.326;2023-02-14T18:55:00;102733.66;;;6.12;94.99
44359;BME280;30077;52.474;13.326;2023-02-14T19:00:00;102720.34;;;6.06;95.26
44359;BME280;30077;52.474;13.326;2023-02-14T19:05:05;102716.88;;;6.10;94.99
44359;BME280;30077;52.474;13.326;2023-02-14T19:10:06;102718.59;;;6.05;95.51
44359;BME280;30077;52.474;13.326;2023-02-14T19:15:06;102711.53;;;6.04;95.67
44359;BME280;30077;52.474;13.326;2023-02-14T19:20:07;102701.78;;;6.00;95.78
44359;BME280;30077;52.474;13.326;2023-02-14T19:25:07;102711.50;;;6.01;95.57
44359;BME280;30077;52.474;13.326;2023-02-14T19:30:07;102704.41;;;5.97;96.01
44359;BME280;30077;52.474;13.326;2023-02-14T19:35:09;102700.84;;;5.95;96.83
44359;BME280;30077;52.474;13.326;2023-02-14T19:40:10;102713.22;;;5.99;96.67
44359;BME280;30077;52.474;13.326;2023-02-14T19:45:11;102699.09;;;5.97;96.58
44359;BME280;30077;52.474;13.326;2023-02-14T19:50:11;102707.84;;;5.90;96.75
44359;BME280;30077;52.474;13.326;2023-02-14T19:55:18;102700.78;;;5.89;97.09
44359;BME280;30077;52.474;13.326;2023-02-14T20:00:19;102701.66;;;5.88;96.81
44359;BME280;30077;52.474;13.326;2023-02-14T20:05:19;102696.38;;;5.89;96.96
44359;BME280;30077;52.474;13.326;2023-02-14T20:10:20;102705.22;;;5.88;97.18
44359;BME280;30077;52.474;13.326;2023-02-14T20:15:21;102690.16;;;5.83;96.96
44359;BME280;30077;52.474;13.326;2023-02-14T20:20:22;102684.81;;;5.79;97.33
44359;BME280;30077;52.474;13.326;2023-02-14T20:25:22;102671.53;;;5.76;97.99
44359;BME280;30077;52.474;13.326;2023-02-14T20:30:22;102669.75;;;5.71;97.81
44359;BME280;30077;52.474;13.326;2023-02-14T20:35:22;102668.81;;;5.61;98.76
44359;BME280;30077;52.474;13.326;2023-02-14T20:40:23;102661.78;;;5.63;98.92
44359;BME280;30077;52.474;13.326;2023-02-14T20:45:23;102668.78;;;5.58;98.88
44359;BME280;30077;52.474;13.326;2023-02-14T20:50:23;102661.78;;;5.63;98.73
44359;BME280;30077;52.474;13.326;2023-02-14T20:55:23;102657.31;;;5.56;98.87
44359;BME280;30077;52.474;13.326;2023-02-14T21:00:25;102656.41;;;5.57;98.60
44359;BME280;30077;52.474;13.326;2023-02-14T21:05:26;102646.63;;;5.45;99.30
44359;BME280;30077;52.474;13.326;2023-02-14T21:10:27;102643.91;;;5.41;100.00
44359;BME280;30077;52.474;13.326;2023-02-14T21:15:27;102644.81;;;5.40;100.00
44359;BME280;30077;52.474;13.326;2023-02-14T21:20:28;102645.72;;;5.42;100.00
44359;BME280;30077;52.474;13.326;2023-02-14T21:25:30;102637.81;;;5.46;99.81
44359;BME280;30077;52.474;13.326;2023-02-14T21:30:30;102633.38;;;5.47;99.63
44359;BME280;30077;52.474;13.326;2023-02-14T21:35:34;102631.63;;;5.46;99.78
44359;BME280;30077;52.474;13.326;2023-02-14T21:40:34;102630.72;;;5.44;100.00
44359;BME280;30077;52.474;13.326;2023-02-14T21:45:34;102635.09;;;5.39;100.00
44359;BME280;30077;52.474;13.326;2023-02-14T21:50:52;102626.28;;;5.40;99.68
44359;BME280;30077;52.474;13.326;2023-02-14T21:55:52;102614.75;;;5.31;99.63
44359;BME280;30077;52.474;13.326;2023-02-14T22:00:52;102612.91;;;5.21;99.73
44359;BME280;30077;52.474;13.326;2023-02-14T22:05:59;102617.13;;;4.98;100.00
44359;BME280;30077;52.474;13.326;2023-02-14T22:11:03;102613.34;;;4.74;100.00
44359;BME280;30077;52.474;13.326;2023-02-14T22:16:04;102615.81;;;4.57;100.00
44359;BME280;30077;52.474;13.326;2023-02-14T22:21:05;102623.59;;;4.44;100.00
44359;BME280;30077;52.474;13.326;2023-02-14T22:26:28;102602.28;;;4.31;100.00
44359;BME280;30077;52.474;13.326;2023-02-14T22:31:27;102591.59;;;4.18;100.00
44359;BME280;30077;52.474;13.326;2023-02-14T22:36:28;102593.25;;;4.11;100.00
44359;BME280;30077;52.474;13.326;2023-02-14T22:41:28;102584.38;;;4.06;100.00
44359;BME280;30077;52.474;13.326;2023-02-14T22:46:28;102578.13;;;3.99;100.00
44359;BME280;30077;52.474;13.326;2023-02-14T22:51:39;102575.44;;;3.95;100.00
44359;BME280;30077;52.474;13.326;2023-02-14T22:56:40;102568.28;;;3.88;100.00
44359;BME280;30077;52.474;13.326;2023-02-14T23:01:40;102566.47;;;3.83;100.00
44359;BME280;30077;52.474;13.326;2023-02-14T23:06:41;102567.34;;;3.82;100.00
44359;BME280;30077;52.474;13.326;2023-02-14T23:11:41;102554.25;;;3.89;100.00
44359;BME280;30077;52.474;13.326;2023-02-14T23:16:42;102563.09;;;3.94;100.00
44359;BME280;30077;52.474;13.326;2023-02-14T23:22:03;102560.50;;;3.97;100.00
44359;BME280;30077;52.474;13.326;2023-02-14T23:27:04;102564.91;;;3.98;100.00
44359;BME280;30077;52.474;13.326;2023-02-14T23:32:05;102562.16;;;3.89;100.00
44359;BME280;30077;52.474;13.326;2023-02-14T23:37:06;102548.78;;;3.76;100.00
44359;BME280;30077;52.474;13.326;2023-02-14T23:42:12;102554.84;;;3.68;100.00
44359;BME280;30077;52.474;13.326;2023-02-14T23:47:13;102553.03;;;3.64;100.00
44359;BME280;30077;52.474;13.326;2023-02-14T23:52:14;102554.69;;;3.58;100.00
44359;BME280;30077;52.474;13.326;2023-02-14T23:57:14;102548.44;;;3.52;100.00
